Time;durP1;ratioP1;P1;durP2;ratioP2;P2;SDS_P1;SDS_P2;PMS_P1;PMS_P2;Temp;Humidity;BMP_temperature;BMP_pressure;BME280_temperature;BME280_humidity;BME280_pressure;Samples;Min_cycle;Max_cycle;Signal;HPM_P1;HPM_P2
2022/05/28 00:01:01;;;;;;;7.28;1.80;;;;;;;10.40;82.78;96350.59;1786608;80;20990;-85
2022/05/28 00:03:28;;;;;;;6.08;1.87;;;;;;;10.39;82.59;96345.09;1786374;80;21047;-86
2022/05/28 00:05:54;;;;;;;5.78;2.02;;;;;;;10.34;82.76;96341.73;1787192;80;20950;-85
2022/05/28 00:08:20;;;;;;;6.58;1.95;;;;;;;10.31;82.75;96340.81;1786520;80;21041;-85
2022/05/28 00:10:46;;;;;;;10.30;1.87;;;;;;;10.25;82.84;96338.11;1787170;80;20967;-84
2022/05/28 00:13:12;;;;;;;9.93;2.25;;;;;;;10.18;82.77;96332.32;1770105;80;21039;-84
2022/05/28 00:15:38;;;;;;;6.03;1.80;;;;;;;10.16;82.78;96329.59;1775126;80;21054;-85
2022/05/28 00:18:04;;;;;;;15.38;2.22;;;;;;;10.15;82.96;96335.28;1778739;80;21120;-86
2022/05/28 00:20:30;;;;;;;3.67;1.62;;;;;;;10.12;82.91;96325.27;1774453;80;21047;-84
2022/05/28 00:22:55;;;;;;;3.33;1.77;;;;;;;10.11;82.28;96324.14;1769048;80;21984;-85
2022/05/28 00:25:21;;;;;;;4.20;1.82;;;;;;;10.13;82.53;96312.59;1778819;80;20971;-85
2022/05/28 00:27:47;;;;;;;10.50;2.30;;;;;;;10.11;82.71;96317.16;1781491;80;21016;-85
2022/05/28 00:30:15;;;;;;;4.35;2.17;;;;;;;10.11;82.85;96322.36;1782552;80;20928;-84
2022/05/28 00:32:41;;;;;;;11.18;2.10;;;;;;;10.12;82.73;96313.58;1782009;80;20957;-85
2022/05/28 00:35:09;;;;;;;6.15;1.65;;;;;;;10.14;82.05;96321.19;1781420;80;21421;-85
2022/05/28 00:37:34;;;;;;;7.35;2.25;;;;;;;10.14;81.96;96309.50;1784166;80;20936;-84
2022/05/28 00:40:02;;;;;;;5.42;2.20;;;;;;;10.18;82.39;96314.14;1780118;80;20973;-85
2022/05/28 00:42:29;;;;;;;6.33;2.00;;;;;;;10.20;82.21;96310.06;1770095;80;21425;-84
2022/05/28 00:44:55;;;;;;;5.50;2.00;;;;;;;10.20;82.68;96299.19;1769308;80;20941;-87
2022/05/28 00:47:21;;;;;;;4.35;1.70;;;;;;;10.19;82.90;96300.67;1789106;79;21368;-85
2022/05/28 00:49:46;;;;;;;6.00;1.87;;;;;;;10.18;82.75;96295.16;1789908;79;21416;-85
2022/05/28 00:52:12;;;;;;;3.30;2.00;;;;;;;10.19;81.69;96288.98;1780389;79;21400;-85
2022/05/28 00:54:45;;;;;;;4.08;2.40;;;;;;;10.25;81.69;96285.71;1794137;79;21059;-86
2022/05/28 00:57:11;;;;;;;7.30;4.87;;;;;;;10.28;81.10;96297.52;1771348;79;21310;-85
2022/05/28 00:59:37;;;;;;;5.45;4.10;;;;;;;10.32;80.89;96297.47;1785786;79;20931;-85
2022/05/28 01:02:20;;;;;;;4.12;2.33;;;;;;;10.35;80.63;96308.29;1777882;79;20983;-85
2022/05/28 01:05:07;;;;;;;6.72;4.05;;;;;;;10.40;80.49;96304.64;1755912;80;20995;-85
2022/05/28 01:08:09;;;;;;;2.98;1.77;;;;;;;10.46;80.73;96312.22;1778926;79;21428;-85
2022/05/28 01:11:05;;;;;;;3.50;2.20;;;;;;;10.49;80.20;96311.84;1773077;79;21067;-85
2022/05/28 01:14:02;;;;;;;7.33;2.98;;;;;;;10.52;79.76;96323.17;1777236;79;21948;-85
2022/05/28 01:16:36;;;;;;;3.30;2.62;;;;;;;10.53;80.12;96320.39;1765830;80;21022;-85
2022/05/28 01:19:41;;;;;;;5.87;3.65;;;;;;;10.55;80.13;96315.00;1785123;79;21042;-85
2022/05/28 01:22:30;;;;;;;4.00;2.40;;;;;;;10.57;79.92;96317.42;1768558;79;21034;-86
2022/05/28 01:25:35;;;;;;;4.03;2.62;;;;;;;10.57;79.97;96313.03;1770381;80;20964;-85
2022/05/28 01:28:07;;;;;;;3.83;2.67;;;;;;;10.58;79.54;96316.45;1777180;79;21373;-85
2022/05/28 01:30:33;;;;;;;3.72;2.67;;;;;;;10.61;79.60;96317.38;1772084;79;20979;-85
2022/05/28 01:32:58;;;;;;;6.20;3.27;;;;;;;10.60;79.62;96323.58;1778290;79;21387;-85
2022/05/28 01:35:24;;;;;;;3.90;3.50;;;;;;;10.57;79.43;96320.82;1783036;79;21094;-85
2022/05/28 01:37:50;;;;;;;5.08;3.42;;;;;;;10.55;79.51;96320.20;1727465;79;21112;-85
2022/05/28 01:40:16;;;;;;;4.37;3.45;;;;;;;10.50;79.45;96321.25;1751531;80;20947;-85
2022/05/28 01:42:51;;;;;;;3.50;2.90;;;;;;;10.50;79.41;96317.36;1784455;79;21402;-84
2022/05/28 01:45:17;;;;;;;5.08;3.30;;;;;;;10.49;79.33;96317.05;1776901;79;20984;-87
2022/05/28 01:47:43;;;;;;;3.55;3.20;;;;;;;10.45;79.33;96310.61;1768938;80;21031;-88
2022/05/28 01:50:11;;;;;;;6.00;4.10;;;;;;;10.38;79.37;96312.31;1782280;80;20938;-85
2022/05/28 01:52:37;;;;;;;4.37;3.95;;;;;;;10.32;79.46;96316.94;1790796;80;20947;-85
2022/05/28 01:55:04;;;;;;;4.08;3.62;;;;;;;10.27;79.67;96311.49;1791680;80;20964;-88
2022/05/28 01:57:29;;;;;;;6.65;3.65;;;;;;;10.22;79.79;96315.42;1788492;80;21017;-88
2022/05/28 01:59:55;;;;;;;6.87;3.37;;;;;;;10.19;79.70;96310.56;1786268;80;20918;-87
2022/05/28 02:02:21;;;;;;;5.60;3.52;;;;;;;10.19;79.66;96312.35;1757422;80;21014;-88
2022/05/28 02:04:47;;;;;;;4.47;3.33;;;;;;;10.17;79.73;96312.53;1778095;80;20998;-88
2022/05/28 02:07:15;;;;;;;3.50;3.20;;;;;;;10.14;79.64;96310.30;1781093;80;21006;-85
2022/05/28 02:09:51;;;;;;;6.53;3.80;;;;;;;10.12;79.67;96313.58;1780014;80;20975;-85
2022/05/28 02:12:40;;;;;;;6.55;3.70;;;;;;;10.08;79.66;96308.41;1781202;80;20967;-85
2022/05/28 02:15:39;;;;;;;5.37;4.30;;;;;;;10.02;79.77;96309.14;1777258;80;21321;-85
2022/05/28 02:18:25;;;;;;;6.35;4.05;;;;;;;10.01;79.87;96312.72;1781919;80;21056;-85
2022/05/28 02:20:59;;;;;;;6.83;3.98;;;;;;;9.98;79.91;96311.79;1771182;80;21079;-84
2022/05/28 02:23:35;;;;;;;7.28;4.15;;;;;;;9.98;80.01;96304.00;1791692;80;21050;-86
2022/05/28 02:26:18;;;;;;;4.60;3.70;;;;;;;9.98;80.09;96321.37;1788196;80;21054;-86
2022/05/28 02:28:43;;;;;;;4.92;3.77;;;;;;;9.97;80.09;96304.99;1791608;80;20987;-85
2022/05/28 02:31:19;;;;;;;9.15;4.15;;;;;;;9.93;80.10;96301.95;1790730;80;21018;-85
2022/05/28 02:33:45;;;;;;;6.50;4.70;;;;;;;9.90;80.17;96298.89;1789375;80;21069;-85
2022/05/28 02:36:13;;;;;;;5.12;3.90;;;;;;;9.86;80.19;96298.94;1788419;80;21004;-85
2022/05/28 02:38:39;;;;;;;4.97;3.45;;;;;;;9.87;80.24;96292.27;1789937;80;21075;-84
2022/05/28 02:41:05;;;;;;;6.90;4.00;;;;;;;9.86;79.90;96298.94;1786906;80;20941;-85
2022/05/28 02:43:31;;;;;;;6.42;3.72;;;;;;;9.85;79.80;96298.13;1784676;80;21023;-85
2022/05/28 02:46:00;;;;;;;5.80;4.03;;;;;;;9.84;79.79;96287.44;1789078;79;21031;-84
2022/05/28 02:48:26;;;;;;;11.15;4.70;;;;;;;9.83;79.77;96285.03;1781041;80;21467;-86
2022/05/28 02:50:52;;;;;;;5.60;3.40;;;;;;;9.81;79.71;96281.81;1785289;80;21012;-85
2022/05/28 02:53:18;;;;;;;6.87;3.20;;;;;;;9.80;79.64;96275.81;1783904;80;21405;-85
2022/05/28 02:55:44;;;;;;;5.75;3.30;;;;;;;9.82;79.71;96280.83;1787749;80;21398;-86
2022/05/28 02:58:10;;;;;;;9.68;3.33;;;;;;;9.79;79.24;96274.20;1792726;80;21039;-86
2022/05/28 03:00:36;;;;;;;4.97;3.50;;;;;;;9.79;79.02;96274.20;1790037;80;21029;-86
2022/05/28 03:03:02;;;;;;;4.70;2.90;;;;;;;9.78;78.91;96269.20;1789254;80;21448;-86
2022/05/28 03:05:28;;;;;;;6.45;3.62;;;;;;;9.77;78.54;96270.99;1789327;80;20979;-86
2022/05/28 03:07:54;;;;;;;5.37;3.35;;;;;;;9.77;78.48;96268.39;1789954;80;21318;-86
2022/05/28 03:10:19;;;;;;;7.58;3.58;;;;;;;9.78;78.00;96273.09;1789532;80;20942;-86
2022/05/28 03:12:45;;;;;;;4.50;2.92;;;;;;;9.75;77.62;96259.16;1788513;79;20967;-86
2022/05/28 03:15:11;;;;;;;8.10;3.40;;;;;;;9.75;77.27;96265.64;1791265;80;20979;-86
2022/05/28 03:17:38;;;;;;;5.72;2.75;;;;;;;9.77;77.04;96267.10;1790717;80;21003;-86
2022/05/28 03:20:05;;;;;;;5.30;2.67;;;;;;;9.77;76.53;96267.10;1786244;80;20958;-86
2022/05/28 03:22:31;;;;;;;6.10;2.83;;;;;;;9.75;76.93;96269.04;1789390;80;21008;-86
2022/05/28 03:24:57;;;;;;;4.87;2.62;;;;;;;9.74;76.32;96267.43;1791946;80;20966;-86
2022/05/28 03:27:23;;;;;;;6.42;2.72;;;;;;;9.72;75.99;96269.89;1791223;80;21261;-86
2022/05/28 03:29:49;;;;;;;7.87;3.40;;;;;;;9.70;75.72;96266.68;1790600;80;20982;-86
2022/05/28 03:32:15;;;;;;;6.20;3.35;;;;;;;9.70;75.52;96269.27;1788222;80;20946;-86
2022/05/28 03:34:41;;;;;;;6.28;2.20;;;;;;;9.72;75.26;96269.89;1787195;80;20957;-86
2022/05/28 03:37:06;;;;;;;6.22;2.12;;;;;;;9.75;76.43;96265.15;1793158;80;21023;-86
2022/05/28 03:39:32;;;;;;;4.00;2.33;;;;;;;9.78;77.35;96271.30;1785779;80;21004;-86
2022/05/28 03:41:58;;;;;;;7.80;2.85;;;;;;;9.76;75.93;96266.78;1786581;80;21024;-86
2022/05/28 03:44:23;;;;;;;3.12;2.37;;;;;;;9.75;75.58;96268.23;1789001;80;20988;-86
2022/05/28 03:46:49;;;;;;;4.15;2.05;;;;;;;9.73;75.88;96265.83;1752015;80;21095;-86
2022/05/28 03:49:27;;;;;;;4.22;2.60;;;;;;;9.72;75.76;96265.52;1721959;81;21384;-88
2022/05/28 03:51:53;;;;;;;7.50;2.98;;;;;;;9.74;75.57;96277.81;1715602;81;21121;-86
2022/05/28 03:54:19;;;;;;;5.40;2.60;;;;;;;9.76;75.22;96275.03;1751991;81;21079;-86
2022/05/28 03:56:45;;;;;;;4.62;2.87;;;;;;;9.78;75.26;96282.98;1736554;82;21014;-86
2022/05/28 03:59:10;;;;;;;5.42;3.10;;;;;;;9.79;75.12;96283.78;1749619;81;21098;-87
2022/05/28 04:01:36;;;;;;;6.00;3.02;;;;;;;9.82;75.36;96290.71;1749685;81;21073;-86
2022/05/28 04:04:02;;;;;;;6.03;2.95;;;;;;;9.82;75.56;96284.72;1752483;81;21011;-86
2022/05/28 04:06:28;;;;;;;4.83;2.77;;;;;;;9.82;75.21;96286.02;1738049;82;20931;-86
2022/05/28 04:08:54;;;;;;;6.15;3.45;;;;;;;9.81;75.19;96294.30;1747367;82;21385;-85
2022/05/28 04:11:20;;;;;;;5.80;2.62;;;;;;;9.83;75.11;96284.53;1754036;82;21357;-85
2022/05/28 04:13:46;;;;;;;4.80;2.55;;;;;;;9.87;75.20;96275.40;1747866;81;20943;-84
2022/05/28 04:16:13;;;;;;;6.40;2.60;;;;;;;9.92;75.03;96289.97;1727619;82;20978;-85
2022/05/28 04:18:40;;;;;;;4.47;2.75;;;;;;;9.94;74.65;96283.30;1749394;81;21084;-85
2022/05/28 04:21:07;;;;;;;4.60;2.70;;;;;;;9.99;74.60;96285.34;1740586;82;21125;-85
2022/05/28 04:23:33;;;;;;;5.30;2.52;;;;;;;10.02;74.62;96284.97;1750637;81;21051;-85
2022/05/28 04:25:59;;;;;;;3.40;2.05;;;;;;;10.04;74.65;96286.40;1749386;81;21399;-85
2022/05/28 04:28:24;;;;;;;4.10;2.12;;;;;;;10.07;74.23;96278.25;1750395;81;21003;-84
2022/05/28 04:30:50;;;;;;;5.78;2.83;;;;;;;10.08;74.23;96279.05;1746743;81;21043;-85
2022/05/28 04:33:16;;;;;;;4.22;2.17;;;;;;;10.11;73.92;96281.31;1748145;81;21074;-85
2022/05/28 04:35:42;;;;;;;5.97;1.98;;;;;;;10.16;73.92;96284.16;1751373;81;21397;-84
2022/05/28 04:38:07;;;;;;;3.15;2.00;;;;;;;10.20;73.93;96286.70;1742401;81;21071;-85
2022/05/28 04:40:33;;;;;;;6.15;2.50;;;;;;;10.27;73.29;96279.84;1741751;81;21032;-84
2022/05/28 04:42:59;;;;;;;8.13;3.42;;;;;;;10.32;73.44;96277.49;1746353;81;21042;-84
2022/05/28 04:45:24;;;;;;;6.53;3.83;;;;;;;10.38;73.78;96274.65;1748150;81;21014;-84
2022/05/28 04:47:50;;;;;;;7.35;2.90;;;;;;;10.43;73.96;96275.73;1782921;80;21049;-84
2022/05/28 04:50:16;;;;;;;10.35;5.60;;;;;;;10.49;73.77;96293.66;1787175;79;20990;-84
2022/05/28 04:52:41;;;;;;;25.25;14.87;;;;;;;10.51;73.11;96285.19;1787637;79;20978;-84
2022/05/28 04:55:11;;;;;;;9.30;5.33;;;;;;;10.55;73.49;96286.92;1788342;79;21057;-84
2022/05/28 04:57:37;;;;;;;16.60;9.30;;;;;;;10.55;72.95;96285.62;1796558;79;21385;-85
2022/05/28 05:00:12;;;;;;;9.38;5.10;;;;;;;10.51;72.77;96289.09;1794126;79;20888;-84
2022/05/28 05:02:37;;;;;;;19.07;10.45;;;;;;;10.45;72.45;96296.33;1799524;79;20986;-84
2022/05/28 05:05:05;;;;;;;22.98;10.78;;;;;;;10.40;72.24;96299.94;1778393;80;21027;-85
2022/05/28 05:07:31;;;;;;;45.48;19.90;;;;;;;10.40;72.24;96302.05;1795932;79;20954;-85
2022/05/28 05:09:57;;;;;;;21.62;9.78;;;;;;;10.43;72.59;96302.20;1792428;79;20927;-85
2022/05/28 05:12:22;;;;;;;5.70;2.83;;;;;;;10.49;72.58;96297.56;1793965;79;21306;-84
2022/05/28 05:14:48;;;;;;;6.65;4.08;;;;;;;10.54;72.10;96296.51;1781226;79;20973;-84
2022/05/28 05:17:14;;;;;;;6.58;4.03;;;;;;;10.64;72.63;96304.02;1793765;79;21020;-84
2022/05/28 05:19:39;;;;;;;4.58;2.47;;;;;;;10.71;72.43;96300.98;1783648;80;21088;-85
2022/05/28 05:22:05;;;;;;;5.28;2.45;;;;;;;10.79;71.91;96309.98;1782660;80;21398;-85
2022/05/28 05:24:33;;;;;;;6.00;2.47;;;;;;;10.85;71.37;96311.03;1780238;79;21011;-86
2022/05/28 05:26:58;;;;;;;5.87;2.10;;;;;;;10.93;72.37;96313.52;1787259;79;21410;-86
2022/05/28 05:29:24;;;;;;;4.97;2.62;;;;;;;11.00;72.18;96310.48;1793404;79;21022;-85
2022/05/28 05:31:50;;;;;;;2.42;1.82;;;;;;;11.05;71.35;96315.92;1785337;79;20943;-85
2022/05/28 05:34:15;;;;;;;4.87;2.42;;;;;;;11.07;70.29;96310.06;1800371;79;20982;-85
2022/05/28 05:36:41;;;;;;;4.17;2.50;;;;;;;11.10;70.84;96308.38;1792508;80;20934;-85
2022/05/28 05:39:07;;;;;;;6.10;2.12;;;;;;;11.10;70.49;96304.48;1789528;79;20988;-85
2022/05/28 05:41:39;;;;;;;5.35;2.58;;;;;;;11.18;70.34;96307.44;1789634;80;21019;-85
2022/05/28 05:44:05;;;;;;;5.28;2.00;;;;;;;11.20;70.03;96302.35;1787592;79;20946;-84
2022/05/28 05:46:31;;;;;;;3.70;1.77;;;;;;;11.22;70.23;96313.37;1787378;79;20972;-85
2022/05/28 05:48:57;;;;;;;3.90;2.22;;;;;;;11.27;70.32;96314.13;1785578;79;21061;-85
2022/05/28 05:51:23;;;;;;;7.75;2.47;;;;;;;11.25;70.02;96310.92;1789268;80;20970;-85
2022/05/28 05:53:48;;;;;;;6.12;2.15;;;;;;;11.25;69.43;96315.62;1786975;79;21415;-85
2022/05/28 05:56:14;;;;;;;5.85;2.00;;;;;;;11.27;69.08;96311.03;1773512;79;21038;-86
2022/05/28 05:58:40;;;;;;;2.05;1.60;;;;;;;11.26;68.85;96307.32;1788796;79;20963;-86
2022/05/28 06:01:06;;;;;;;4.03;2.45;;;;;;;11.25;68.46;96310.92;1795147;79;20951;-85
2022/05/28 06:03:32;;;;;;;3.65;1.52;;;;;;;11.26;68.30;96304.72;1797461;79;20923;-85
2022/05/28 06:06:00;;;;;;;4.37;1.87;;;;;;;11.29;67.11;96298.64;1810466;79;20931;-86
2022/05/28 06:08:26;;;;;;;4.72;1.82;;;;;;;11.34;67.87;96300.67;1792240;80;21424;-85
2022/05/28 06:10:52;;;;;;;4.65;2.40;;;;;;;11.45;68.18;96290.25;1784939;79;21432;-84
2022/05/28 06:13:18;;;;;;;4.80;2.37;;;;;;;11.46;67.76;96294.47;1771373;79;20995;-84
2022/05/28 06:15:45;;;;;;;3.20;1.80;;;;;;;11.47;67.19;96294.77;1789230;80;21418;-85
2022/05/28 06:18:13;;;;;;;6.12;2.42;;;;;;;11.56;66.76;96294.95;1777669;80;21048;-84
2022/05/28 06:20:39;;;;;;;3.83;1.90;;;;;;;11.61;65.86;96289.47;1786955;80;21061;-85
2022/05/28 06:23:05;;;;;;;4.42;2.30;;;;;;;11.60;66.45;96283.16;1792385;80;21123;-85
2022/05/28 06:25:31;;;;;;;3.80;2.65;;;;;;;11.62;67.19;96286.38;1784446;80;21375;-84
2022/05/28 06:27:57;;;;;;;8.78;3.42;;;;;;;11.62;67.67;96282.47;1786185;80;21018;-84
2022/05/28 06:30:23;;;;;;;42.90;21.07;;;;;;;11.64;68.55;96281.78;1786477;80;21085;-84
2022/05/28 06:32:49;;;;;;;56.98;26.15;;;;;;;11.64;67.96;96281.28;1787184;80;21436;-84
2022/05/28 06:35:15;;;;;;;34.40;16.37;;;;;;;11.62;67.50;96272.86;1788521;80;21053;-83
2022/05/28 06:37:41;;;;;;;85.65;36.30;;;;;;;11.57;67.62;96278.34;1780188;80;21070;-83
2022/05/28 06:40:08;;;;;;;13.10;6.85;;;;;;;11.49;67.72;96279.27;1784310;80;21021;-83
2022/05/28 06:42:34;;;;;;;15.50;6.22;;;;;;;11.40;68.60;96276.02;1785590;80;21043;-83
2022/05/28 06:45:00;;;;;;;11.20;6.08;;;;;;;11.34;69.26;96283.27;1793555;79;21031;-84
2022/05/28 06:47:28;;;;;;;9.85;3.83;;;;;;;11.38;69.63;96283.19;1766934;80;20994;-83
2022/05/28 06:52:39;;;;;;;5.67;2.60;;;;;;;11.54;68.96;96278.20;1773437;80;21051;-83
2022/05/28 06:55:05;;;;;;;5.37;2.72;;;;;;;11.67;69.25;96276.19;1779574;80;20936;-83
2022/05/28 06:57:31;;;;;;;10.40;3.92;;;;;;;11.72;68.20;96279.05;1784968;80;21364;-83
2022/05/28 06:59:59;;;;;;;4.28;2.47;;;;;;;11.71;68.21;96282.14;1787396;80;20989;-83
2022/05/28 07:02:25;;;;;;;2.75;1.70;;;;;;;11.80;67.62;96280.20;1777881;80;21424;-84
2022/05/28 07:04:51;;;;;;;5.03;2.37;;;;;;;11.81;66.14;96271.90;1766166;80;21362;-84
2022/05/28 07:07:17;;;;;;;7.55;3.37;;;;;;;11.84;65.83;96265.80;1787421;80;20984;-84
2022/05/28 07:09:43;;;;;;;5.62;2.12;;;;;;;11.91;65.56;96261.45;1787353;80;20998;-84
2022/05/28 07:12:09;;;;;;;4.70;2.20;;;;;;;12.01;65.80;96263.69;1787746;80;20948;-84
2022/05/28 07:14:34;;;;;;;5.65;2.30;;;;;;;12.06;65.09;96270.44;1787296;80;20917;-83
2022/05/28 07:17:00;;;;;;;5.20;2.10;;;;;;;12.01;63.83;96276.70;1786876;80;20930;-83
2022/05/28 07:19:26;;;;;;;6.20;2.52;;;;;;;11.92;63.38;96279.18;1786475;80;21001;-83
2022/05/28 07:21:51;;;;;;;4.05;2.17;;;;;;;11.86;63.55;96278.12;1786793;80;20913;-83
2022/05/28 07:24:17;;;;;;;6.28;2.33;;;;;;;11.91;64.26;96264.56;1787010;80;21346;-83
2022/05/28 07:26:43;;;;;;;5.60;2.58;;;;;;;11.90;63.37;96272.06;1787078;80;20993;-84
2022/05/28 07:29:09;;;;;;;4.45;2.40;;;;;;;12.07;63.45;96263.44;1786797;80;21030;-83
2022/05/28 07:31:35;;;;;;;6.33;3.20;;;;;;;12.27;62.96;96252.59;1781678;80;21380;-83
2022/05/28 07:34:01;;;;;;;4.50;2.10;;;;;;;12.38;63.29;96244.22;1785172;80;21045;-82
2022/05/28 07:36:27;;;;;;;4.00;1.80;;;;;;;12.41;63.26;96245.13;1786466;80;21334;-83
2022/05/28 07:38:53;;;;;;;5.60;2.10;;;;;;;12.41;62.05;96233.39;1784674;80;20959;-83
2022/05/28 07:41:22;;;;;;;5.28;2.02;;;;;;;12.31;61.60;96238.16;1746186;80;21045;-84
2022/05/28 07:43:48;;;;;;;4.67;2.00;;;;;;;12.19;61.33;96252.73;1785420;80;21086;-84
2022/05/28 07:46:18;;;;;;;5.90;2.20;;;;;;;12.11;62.19;96255.53;1781792;80;20980;-83
2022/05/28 07:48:45;;;;;;;6.55;3.80;;;;;;;12.03;61.97;96257.28;1782423;79;21043;-83
2022/05/28 07:51:11;;;;;;;12.47;5.95;;;;;;;12.01;61.55;96254.07;1788408;79;20943;-83
2022/05/28 07:53:39;;;;;;;6.25;4.33;;;;;;;12.03;62.66;96259.89;1781440;80;21098;-87
2022/05/28 07:56:05;;;;;;;7.05;3.47;;;;;;;12.07;62.73;96254.31;1782142;79;21379;-85
2022/05/28 07:58:31;;;;;;;6.28;3.62;;;;;;;12.20;63.08;96258.25;1780148;79;21033;-82
2022/05/28 08:00:57;;;;;;;5.55;3.17;;;;;;;12.20;63.08;96258.25;1782324;79;21372;-82
2022/05/28 08:03:23;;;;;;;4.37;2.20;;;;;;;12.20;61.84;96244.77;1780845;80;21286;-84
2022/05/28 08:05:50;;;;;;;3.17;1.57;;;;;;;12.40;61.60;96239.61;1763488;80;20992;-84
2022/05/28 08:08:17;;;;;;;4.87;1.30;;;;;;;12.72;60.71;96246.40;1775528;79;21305;-85
2022/05/28 08:10:43;;;;;;;5.33;1.60;;;;;;;13.04;60.77;96241.72;1787125;80;20951;-86
2022/05/28 08:13:11;;;;;;;3.85;1.35;;;;;;;13.32;60.19;96232.39;1756478;81;20927;-84
2022/05/28 08:15:39;;;;;;;5.03;1.30;;;;;;;13.36;58.96;96240.64;1781036;79;21022;-86
2022/05/28 08:18:05;;;;;;;3.15;1.00;;;;;;;13.31;58.09;96232.09;1779907;79;20999;-88
2022/05/28 08:23:16;;;;;;;3.33;1.30;;;;;;;13.18;57.80;96233.44;1777510;79;21024;-86
2022/05/28 08:25:41;;;;;;;5.42;1.35;;;;;;;13.02;59.20;96231.99;1776213;80;21046;-85
2022/05/28 08:28:09;;;;;;;4.87;1.50;;;;;;;13.28;58.77;96232.50;1786649;80;21034;-90
2022/05/28 08:30:35;;;;;;;5.20;1.75;;;;;;;13.63;59.12;96230.95;1784289;79;20997;-88
2022/05/28 08:33:01;;;;;;;6.17;1.50;;;;;;;13.99;58.18;96232.58;1785791;80;20904;-83
2022/05/28 08:35:27;;;;;;;3.65;1.30;;;;;;;14.29;55.79;96232.83;1788276;79;21063;-84
2022/05/28 08:37:53;;;;;;;3.77;1.55;;;;;;;14.51;55.85;96230.77;1781954;79;20924;-84
2022/05/28 08:40:18;;;;;;;4.90;2.20;;;;;;;14.75;55.11;96226.58;1789207;80;20994;-83
2022/05/28 08:42:44;;;;;;;6.15;1.92;;;;;;;14.89;55.63;96223.38;1781439;80;20933;-84
2022/05/28 08:45:12;;;;;;;2.83;1.25;;;;;;;14.87;54.96;96226.20;1772124;79;21302;-92
2022/05/28 08:47:40;;;;;;;3.77;2.00;;;;;;;14.96;54.84;96231.45;1694621;79;20995;-82
2022/05/28 08:50:07;;;;;;;3.17;1.42;;;;;;;14.80;53.40;96235.89;1783873;79;22017;-83
2022/05/28 08:52:57;;;;;;;2.65;1.27;;;;;;;14.82;54.46;96232.59;1779318;79;21018;-82
2022/05/28 08:55:24;;;;;;;3.08;1.70;;;;;;;15.10;53.45;96226.93;1768316;79;21038;-84
2022/05/28 08:58:13;;;;;;;5.60;2.42;;;;;;;15.19;54.76;96225.66;1781042;79;21007;-87
2022/05/28 09:00:46;;;;;;;4.53;1.62;;;;;;;15.37;54.35;96214.94;1782419;79;20951;-83
2022/05/28 09:03:22;;;;;;;4.87;1.42;;;;;;;15.24;54.39;96225.81;1781914;80;21006;-84
2022/05/28 09:06:02;;;;;;;2.60;1.17;;;;;;;15.28;53.14;96220.94;1780378;80;21659;-83
2022/05/28 09:08:34;;;;;;;5.78;1.87;;;;;;;15.28;53.68;96215.20;1781021;80;21041;-84
2022/05/28 09:11:05;;;;;;;5.53;2.10;;;;;;;15.11;53.24;96212.83;1783033;79;21229;-88
2022/05/28 09:13:49;;;;;;;3.62;1.90;;;;;;;14.84;53.35;96220.09;1783357;80;20932;-87
2022/05/28 09:16:28;;;;;;;5.17;2.30;;;;;;;14.62;53.53;96216.20;1780918;79;21055;-86
2022/05/28 09:19:00;;;;;;;6.70;2.65;;;;;;;14.47;54.09;96222.22;1786262;80;21592;-83
2022/05/28 09:21:26;;;;;;;30.75;14.58;;;;;;;14.41;52.27;96216.80;1792041;80;21403;-84
2022/05/28 09:24:05;;;;;;;8.13;3.47;;;;;;;14.31;53.09;96218.25;1788255;80;20988;-85
2022/05/28 09:26:41;;;;;;;25.00;15.75;;;;;;;14.15;53.82;96220.83;1786993;80;21397;-84
2022/05/28 09:29:34;;;;;;;11.70;7.67;;;;;;;13.98;54.16;96224.41;1774905;80;20999;-84
2022/05/28 09:32:37;;;;;;;8.95;5.78;;;;;;;14.08;53.99;96226.60;1788126;80;21072;-85
2022/05/28 09:35:26;;;;;;;6.47;3.37;;;;;;;14.45;53.21;96221.63;1789076;80;21373;-85
2022/05/28 09:38:06;;;;;;;3.58;1.42;;;;;;;14.84;52.88;96224.02;1789661;80;21098;-85
2022/05/28 09:40:55;;;;;;;5.95;2.35;;;;;;;15.04;52.28;96234.84;1757729;80;21088;-85
2022/05/28 09:44:00;;;;;;;6.28;2.50;;;;;;;14.85;51.25;96230.85;1784668;80;21017;-86
2022/05/28 09:46:33;;;;;;;3.72;1.57;;;;;;;14.67;52.58;96233.39;1771839;80;20975;-84
2022/05/28 09:49:05;;;;;;;6.22;2.00;;;;;;;14.83;54.26;96232.88;1785407;80;20948;-85
2022/05/28 09:51:33;;;;;;;4.83;1.90;;;;;;;14.88;53.59;96230.42;1762610;80;20972;-89
2022/05/28 09:54:19;;;;;;;3.22;1.42;;;;;;;14.97;53.08;96226.55;1741197;80;21108;-83
2022/05/28 09:56:54;;;;;;;3.17;1.67;;;;;;;15.06;53.81;96210.57;1787610;80;20982;-83
2022/05/28 09:59:37;;;;;;;5.45;2.00;;;;;;;14.89;52.04;96207.68;1789138;80;21067;-83
2022/05/28 10:02:21;;;;;;;5.75;1.32;;;;;;;14.64;52.56;96208.47;1773544;79;21015;-83
2022/05/28 10:05:00;;;;;;;3.08;1.37;;;;;;;14.39;51.96;96206.26;1784428;80;21109;-83
2022/05/28 10:07:40;;;;;;;4.78;1.15;;;;;;;14.54;51.88;96199.47;1774277;80;20967;-83
2022/05/28 10:10:30;;;;;;;2.10;0.95;;;;;;;14.84;52.72;96193.14;1767887;80;21346;-83
2022/05/28 10:13:12;;;;;;;2.95;1.00;;;;;;;15.16;51.14;96184.73;1767911;80;21010;-83
2022/05/28 10:15:41;;;;;;;3.37;1.07;;;;;;;15.48;52.10;96169.72;1769587;80;21026;-83
2022/05/28 10:18:20;;;;;;;5.35;1.70;;;;;;;15.80;52.12;96176.97;1767195;80;21042;-83
2022/05/28 10:20:59;;;;;;;3.62;1.05;;;;;;;15.94;51.12;96177.08;1768723;80;20956;-83
2022/05/28 10:23:25;;;;;;;4.17;1.00;;;;;;;16.03;50.37;96181.01;1768847;80;21330;-84
2022/05/28 10:25:51;;;;;;;4.05;0.90;;;;;;;16.00;48.57;96186.69;1761658;80;20930;-83
2022/05/28 10:28:48;;;;;;;3.22;0.95;;;;;;;16.11;50.11;96179.41;1790150;80;20965;-83
2022/05/28 10:31:28;;;;;;;4.55;0.80;;;;;;;15.92;48.73;96186.98;1781125;80;20980;-83
2022/05/28 10:33:54;;;;;;;2.02;1.02;;;;;;;15.75;47.09;96175.48;1784433;80;20983;-83
2022/05/28 10:36:26;;;;;;;2.85;1.45;;;;;;;15.76;48.79;96183.64;1784651;80;21038;-84
2022/05/28 10:38:52;;;;;;;4.90;2.25;;;;;;;15.80;47.85;96175.66;1775455;80;20995;-83
2022/05/28 10:41:26;;;;;;;3.77;1.00;;;;;;;15.84;48.35;96186.78;1789799;80;20980;-83
2022/05/28 10:43:52;;;;;;;2.67;1.62;;;;;;;15.69;49.56;96186.85;1790282;80;20901;-84
2022/05/28 10:46:57;;;;;;;5.10;2.27;;;;;;;15.66;49.09;96199.88;1790301;80;21334;-84
2022/05/28 10:49:37;;;;;;;8.80;4.35;;;;;;;15.71;48.04;96187.43;1769299;80;21489;-83
2022/05/28 10:52:31;;;;;;;6.15;2.65;;;;;;;15.50;48.24;96192.05;1787682;80;20933;-83
2022/05/28 10:55:21;;;;;;;4.28;1.70;;;;;;;15.34;48.19;96191.81;1715938;80;21030;-84
2022/05/28 10:58:22;;;;;;;2.77;1.07;;;;;;;15.13;47.94;96196.43;1787828;80;21375;-84
2022/05/28 11:01:08;;;;;;;1.17;0.70;;;;;;;15.03;48.26;96209.19;1788049;80;21049;-83
2022/05/28 11:03:51;;;;;;;2.40;0.62;;;;;;;14.85;47.19;96189.51;1787618;80;20982;-84
2022/05/28 11:06:52;;;;;;;2.92;1.00;;;;;;;15.24;48.36;96190.98;1787697;80;21029;-84
2022/05/28 11:09:46;;;;;;;2.98;0.90;;;;;;;15.42;48.35;96196.75;1787751;80;21350;-83
2022/05/28 11:12:43;;;;;;;1.95;0.78;;;;;;;15.21;48.37;96208.43;1780319;80;20999;-83
2022/05/28 11:15:48;;;;;;;1.20;0.53;;;;;;;14.84;47.23;96231.06;1772221;80;21010;-83
2022/05/28 11:18:28;;;;;;;34.95;15.45;;;;;;;14.44;48.90;96249.58;1781616;80;20971;-83
2022/05/28 11:20:59;;;;;;;7.97;3.72;;;;;;;13.92;51.33;96246.14;1783435;80;21021;-82
2022/05/28 11:24:05;;;;;;;42.62;21.45;;;;;;;13.57;52.17;96249.55;1781993;80;20984;-83
2022/05/28 11:26:46;;;;;;;13.50;7.12;;;;;;;13.29;54.00;96282.88;1771402;80;21048;-82
2022/05/28 11:29:29;;;;;;;12.33;5.92;;;;;;;12.98;54.71;96272.50;1780161;80;21039;-82
2022/05/28 11:32:18;;;;;;;3.02;1.50;;;;;;;12.77;56.34;96273.48;1763468;80;20971;-82
2022/05/28 11:35:02;;;;;;;9.35;4.03;;;;;;;12.60;56.43;96280.85;1777676;80;21017;-82
2022/05/28 11:37:33;;;;;;;4.10;2.00;;;;;;;12.33;58.09;96318.23;1781206;80;20960;-81
2022/05/28 11:40:13;;;;;;;2.20;1.25;;;;;;;12.03;60.21;96343.72;1784349;80;21325;-81
2022/05/28 11:43:03;;;;;;;2.17;0.93;;;;;;;11.56;61.88;96337.39;1788175;80;21351;-83
2022/05/28 11:45:53;;;;;;;3.98;1.20;;;;;;;11.27;62.95;96324.03;1781647;80;21027;-82
2022/05/28 11:51:27;;;;;;;4.22;1.30;;;;;;;11.15;64.20;96324.22;1772049;80;21459;-81
2022/05/28 11:53:55;;;;;;;6.37;2.60;;;;;;;11.04;66.41;96331.20;1787919;80;21453;-83
2022/05/28 11:56:24;;;;;;;5.05;2.33;;;;;;;11.00;66.30;96329.48;1784608;80;20993;-83
2022/05/28 11:58:52;;;;;;;5.70;1.95;;;;;;;11.05;66.74;96318.52;1789480;80;20997;-85
2022/05/28 12:01:25;;;;;;;4.20;2.02;;;;;;;11.17;66.71;96314.44;1788167;80;21037;-84